sensor_id;sensor_type;location;lat;lon;timestamp;P1;durP1;ratioP1;P2;durP2;ratioP2
15106;SDS011;7654;45.308;-75.096;2022-10-22T00:00:16;0.40;;;0.40;;
15106;SDS011;7654;45.308;-75.096;2022-10-22T00:02:58;0.50;;;0.50;;
15106;SDS011;7654;45.308;-75.096;2022-10-22T00:05:30;0.40;;;0.40;;
15106;SDS011;7654;45.308;-75.096;2022-10-22T00:08:01;0.40;;;0.40;;
15106;SDS011;7654;45.308;-75.096;2022-10-22T00:10:31;0.40;;;0.40;;
15106;SDS011;7654;45.308;-75.096;2022-10-22T00:13:02;0.50;;;0.50;;
15106;SDS011;7654;45.308;-75.096;2022-10-22T00:15:32;0.47;;;0.47;;
15106;SDS011;7654;45.308;-75.096;2022-10-22T00:18:03;0.50;;;0.50;;
15106;SDS011;7654;45.308;-75.096;2022-10-22T00:20:39;0.40;;;0.40;;
15106;SDS011;7654;45.308;-75.096;2022-10-22T00:23:10;0.50;;;0.50;;
15106;SDS011;7654;45.308;-75.096;2022-10-22T00:25:40;0.40;;;0.40;;
15106;SDS011;7654;45.308;-75.096;2022-10-22T00:28:11;0.40;;;0.40;;
15106;SDS011;7654;45.308;-75.096;2022-10-22T00:31:01;0.47;;;0.47;;
15106;SDS011;7654;45.308;-75.096;2022-10-22T00:33:56;0.50;;;0.50;;
15106;SDS011;7654;45.308;-75.096;2022-10-22T00:36:28;0.50;;;0.50;;
15106;SDS011;7654;45.308;-75.096;2022-10-22T00:38:59;0.50;;;0.50;;
15106;SDS011;7654;45.308;-75.096;2022-10-22T00:41:32;0.40;;;0.40;;
15106;SDS011;7654;45.308;-75.096;2022-10-22T00:47:36;0.50;;;0.50;;
15106;SDS011;7654;45.308;-75.096;2022-10-22T00:50:13;0.40;;;0.40;;
15106;SDS011;7654;45.308;-75.096;2022-10-22T00:52:49;0.40;;;0.40;;
15106;SDS011;7654;45.308;-75.096;2022-10-22T00:55:30;0.50;;;0.50;;
15106;SDS011;7654;45.308;-75.096;2022-10-22T00:58:11;0.40;;;0.40;;
15106;SDS011;7654;45.308;-75.096;2022-10-22T01:01:04;0.50;;;0.50;;
15106;SDS011;7654;45.308;-75.096;2022-10-22T01:03:37;0.40;;;0.40;;
15106;SDS011;7654;45.308;-75.096;2022-10-22T01:06:14;0.40;;;0.40;;
15106;SDS011;7654;45.308;-75.096;2022-10-22T01:09:29;0.50;;;0.50;;
15106;SDS011;7654;45.308;-75.096;2022-10-22T01:12:14;0.50;;;0.50;;
15106;SDS011;7654;45.308;-75.096;2022-10-22T01:15:19;0.50;;;0.50;;
15106;SDS011;7654;45.308;-75.096;2022-10-22T01:18:13;0.40;;;0.40;;
15106;SDS011;7654;45.308;-75.096;2022-10-22T01:21:01;0.50;;;0.50;;
15106;SDS011;7654;45.308;-75.096;2022-10-22T01:30:09;0.40;;;0.40;;
15106;SDS011;7654;45.308;-75.096;2022-10-22T01:32:42;0.50;;;0.50;;
15106;SDS011;7654;45.308;-75.096;2022-10-22T01:35:15;0.50;;;0.50;;
15106;SDS011;7654;45.308;-75.096;2022-10-22T01:37:49;0.50;;;0.50;;
15106;SDS011;7654;45.308;-75.096;2022-10-22T01:40:35;0.50;;;0.50;;
15106;SDS011;7654;45.308;-75.096;2022-10-22T01:43:09;0.50;;;0.50;;
15106;SDS011;7654;45.308;-75.096;2022-10-22T01:45:43;0.50;;;0.50;;
15106;SDS011;7654;45.308;-75.096;2022-10-22T01:48:19;0.40;;;0.40;;
15106;SDS011;7654;45.308;-75.096;2022-10-22T01:51:17;0.50;;;0.50;;
15106;SDS011;7654;45.308;-75.096;2022-10-22T01:53:59;0.40;;;0.40;;
15106;SDS011;7654;45.308;-75.096;2022-10-22T01:56:55;0.40;;;0.40;;
15106;SDS011;7654;45.308;-75.096;2022-10-22T01:59:58;0.47;;;0.47;;
15106;SDS011;7654;45.308;-75.096;2022-10-22T02:02:46;0.40;;;0.40;;
15106;SDS011;7654;45.308;-75.096;2022-10-22T02:05:27;0.50;;;0.50;;
15106;SDS011;7654;45.308;-75.096;2022-10-22T02:08:12;0.50;;;0.50;;
15106;SDS011;7654;45.308;-75.096;2022-10-22T02:10:49;0.50;;;0.50;;
15106;SDS011;7654;45.308;-75.096;2022-10-22T02:13:25;0.50;;;0.50;;
15106;SDS011;7654;45.308;-75.096;2022-10-22T02:15:58;0.50;;;0.50;;
15106;SDS011;7654;45.308;-75.096;2022-10-22T02:18:42;0.40;;;0.40;;
15106;SDS011;7654;45.308;-75.096;2022-10-22T02:21:30;0.50;;;0.50;;
15106;SDS011;7654;45.308;-75.096;2022-10-22T02:24:13;0.40;;;0.40;;
15106;SDS011;7654;45.308;-75.096;2022-10-22T02:26:45;0.50;;;0.50;;
15106;SDS011;7654;45.308;-75.096;2022-10-22T02:29:54;0.50;;;0.50;;
15106;SDS011;7654;45.308;-75.096;2022-10-22T02:32:54;0.40;;;0.40;;
15106;SDS011;7654;45.308;-75.096;2022-10-22T02:35:43;0.50;;;0.50;;
15106;SDS011;7654;45.308;-75.096;2022-10-22T02:38:26;0.50;;;0.50;;
15106;SDS011;7654;45.308;-75.096;2022-10-22T02:40:57;0.43;;;0.43;;
15106;SDS011;7654;45.308;-75.096;2022-10-22T02:43:28;0.50;;;0.50;;
15106;SDS011;7654;45.308;-75.096;2022-10-22T02:45:59;0.50;;;0.50;;
15106;SDS011;7654;45.308;-75.096;2022-10-22T02:48:31;0.57;;;0.57;;
15106;SDS011;7654;45.308;-75.096;2022-10-22T02:51:03;0.40;;;0.40;;
15106;SDS011;7654;45.308;-75.096;2022-10-22T02:53:46;0.40;;;0.40;;
15106;SDS011;7654;45.308;-75.096;2022-10-22T02:56:40;0.50;;;0.50;;
15106;SDS011;7654;45.308;-75.096;2022-10-22T02:59:56;0.50;;;0.50;;
15106;SDS011;7654;45.308;-75.096;2022-10-22T03:05:40;0.50;;;0.50;;
15106;SDS011;7654;45.308;-75.096;2022-10-22T03:11:28;0.50;;;0.50;;
15106;SDS011;7654;45.308;-75.096;2022-10-22T03:14:35;0.50;;;0.50;;
15106;SDS011;7654;45.308;-75.096;2022-10-22T03:17:15;0.50;;;0.50;;
15106;SDS011;7654;45.308;-75.096;2022-10-22T03:19:45;0.47;;;0.47;;
15106;SDS011;7654;45.308;-75.096;2022-10-22T03:31:51;0.50;;;0.50;;
15106;SDS011;7654;45.308;-75.096;2022-10-22T03:34:36;0.50;;;0.50;;
15106;SDS011;7654;45.308;-75.096;2022-10-22T03:37:09;0.40;;;0.40;;
15106;SDS011;7654;45.308;-75.096;2022-10-22T03:39:46;0.40;;;0.40;;
15106;SDS011;7654;45.308;-75.096;2022-10-22T03:43:19;0.50;;;0.50;;
15106;SDS011;7654;45.308;-75.096;2022-10-22T03:45:53;0.50;;;0.50;;
15106;SDS011;7654;45.308;-75.096;2022-10-22T03:48:37;0.40;;;0.40;;
15106;SDS011;7654;45.308;-75.096;2022-10-22T03:51:13;0.60;;;0.60;;
15106;SDS011;7654;45.308;-75.096;2022-10-22T03:53:46;0.50;;;0.50;;
15106;SDS011;7654;45.308;-75.096;2022-10-22T03:56:38;0.40;;;0.40;;
15106;SDS011;7654;45.308;-75.096;2022-10-22T03:59:39;0.50;;;0.50;;
15106;SDS011;7654;45.308;-75.096;2022-10-22T04:02:21;0.40;;;0.40;;
15106;SDS011;7654;45.308;-75.096;2022-10-22T04:04:51;0.43;;;0.43;;
15106;SDS011;7654;45.308;-75.096;2022-10-22T04:07:22;0.40;;;0.40;;
15106;SDS011;7654;45.308;-75.096;2022-10-22T04:09:57;0.40;;;0.40;;
15106;SDS011;7654;45.308;-75.096;2022-10-22T04:12:45;0.40;;;0.40;;
15106;SDS011;7654;45.308;-75.096;2022-10-22T04:15:55;0.50;;;0.50;;
15106;SDS011;7654;45.308;-75.096;2022-10-22T04:18:39;0.40;;;0.40;;
15106;SDS011;7654;45.308;-75.096;2022-10-22T04:21:13;0.50;;;0.50;;
15106;SDS011;7654;45.308;-75.096;2022-10-22T04:24:11;0.40;;;0.40;;
15106;SDS011;7654;45.308;-75.096;2022-10-22T04:29:42;0.50;;;0.50;;
15106;SDS011;7654;45.308;-75.096;2022-10-22T04:35:47;0.50;;;0.50;;
15106;SDS011;7654;45.308;-75.096;2022-10-22T04:38:36;0.47;;;0.47;;
15106;SDS011;7654;45.308;-75.096;2022-10-22T04:48:54;0.50;;;0.50;;
15106;SDS011;7654;45.308;-75.096;2022-10-22T04:58:12;0.50;;;0.50;;
15106;SDS011;7654;45.308;-75.096;2022-10-22T05:01:17;0.50;;;0.50;;
15106;SDS011;7654;45.308;-75.096;2022-10-22T05:04:29;0.50;;;0.50;;
15106;SDS011;7654;45.308;-75.096;2022-10-22T05:10:56;0.40;;;0.40;;
15106;SDS011;7654;45.308;-75.096;2022-10-22T05:14:29;0.43;;;0.43;;
15106;SDS011;7654;45.308;-75.096;2022-10-22T05:17:13;0.40;;;0.40;;
15106;SDS011;7654;45.308;-75.096;2022-10-22T05:19:54;0.43;;;0.43;;
15106;SDS011;7654;45.308;-75.096;2022-10-22T05:23:14;0.50;;;0.50;;
15106;SDS011;7654;45.308;-75.096;2022-10-22T05:26:20;0.50;;;0.50;;
15106;SDS011;7654;45.308;-75.096;2022-10-22T05:29:12;0.40;;;0.40;;
15106;SDS011;7654;45.308;-75.096;2022-10-22T05:38:01;0.50;;;0.50;;
15106;SDS011;7654;45.308;-75.096;2022-10-22T05:44:38;0.40;;;0.40;;
15106;SDS011;7654;45.308;-75.096;2022-10-22T05:48:19;0.40;;;0.40;;
15106;SDS011;7654;45.308;-75.096;2022-10-22T05:50:49;0.40;;;0.40;;
15106;SDS011;7654;45.308;-75.096;2022-10-22T05:53:29;0.50;;;0.50;;
15106;SDS011;7654;45.308;-75.096;2022-10-22T06:00:22;0.40;;;0.40;;
15106;SDS011;7654;45.308;-75.096;2022-10-22T06:03:28;0.40;;;0.40;;
15106;SDS011;7654;45.308;-75.096;2022-10-22T06:06:17;0.50;;;0.50;;
15106;SDS011;7654;45.308;-75.096;2022-10-22T06:09:49;0.40;;;0.40;;
15106;SDS011;7654;45.308;-75.096;2022-10-22T06:15:46;0.50;;;0.50;;
15106;SDS011;7654;45.308;-75.096;2022-10-22T06:18:44;0.50;;;0.50;;
15106;SDS011;7654;45.308;-75.096;2022-10-22T06:24:39;0.50;;;0.50;;
15106;SDS011;7654;45.308;-75.096;2022-10-22T06:27:11;0.40;;;0.40;;
15106;SDS011;7654;45.308;-75.096;2022-10-22T06:29:54;0.40;;;0.40;;
15106;SDS011;7654;45.308;-75.096;2022-10-22T06:32:40;0.50;;;0.50;;
15106;SDS011;7654;45.308;-75.096;2022-10-22T06:35:10;0.50;;;0.50;;
15106;SDS011;7654;45.308;-75.096;2022-10-22T06:37:40;0.50;;;0.50;;
15106;SDS011;7654;45.308;-75.096;2022-10-22T06:40:21;0.50;;;0.50;;
15106;SDS011;7654;45.308;-75.096;2022-10-22T06:43:01;0.40;;;0.40;;
15106;SDS011;7654;45.308;-75.096;2022-10-22T06:45:32;0.40;;;0.40;;
15106;SDS011;7654;45.308;-75.096;2022-10-22T06:48:13;0.40;;;0.40;;
15106;SDS011;7654;45.308;-75.096;2022-10-22T06:50:47;0.50;;;0.50;;
15106;SDS011;7654;45.308;-75.096;2022-10-22T06:53:26;0.50;;;0.50;;
15106;SDS011;7654;45.308;-75.096;2022-10-22T06:55:56;0.40;;;0.40;;
15106;SDS011;7654;45.308;-75.096;2022-10-22T06:58:41;0.40;;;0.40;;
15106;SDS011;7654;45.308;-75.096;2022-10-22T07:04:35;0.40;;;0.40;;
15106;SDS011;7654;45.308;-75.096;2022-10-22T07:07:13;0.40;;;0.40;;
15106;SDS011;7654;45.308;-75.096;2022-10-22T07:09:43;0.40;;;0.40;;
15106;SDS011;7654;45.308;-75.096;2022-10-22T07:12:17;0.50;;;0.50;;
15106;SDS011;7654;45.308;-75.096;2022-10-22T07:17:58;0.40;;;0.40;;
15106;SDS011;7654;45.308;-75.096;2022-10-22T07:20:38;0.40;;;0.40;;
15106;SDS011;7654;45.308;-75.096;2022-10-22T07:23:11;0.40;;;0.40;;
15106;SDS011;7654;45.308;-75.096;2022-10-22T07:25:46;0.60;;;0.60;;
15106;SDS011;7654;45.308;-75.096;2022-10-22T07:28:35;0.40;;;0.40;;
15106;SDS011;7654;45.308;-75.096;2022-10-22T07:31:13;0.50;;;0.50;;
15106;SDS011;7654;45.308;-75.096;2022-10-22T07:33:47;0.50;;;0.50;;
15106;SDS011;7654;45.308;-75.096;2022-10-22T07:42:56;0.43;;;0.43;;
15106;SDS011;7654;45.308;-75.096;2022-10-22T07:45:29;0.60;;;0.60;;
15106;SDS011;7654;45.308;-75.096;2022-10-22T07:50:59;0.50;;;0.50;;
15106;SDS011;7654;45.308;-75.096;2022-10-22T07:53:42;0.50;;;0.50;;
15106;SDS011;7654;45.308;-75.096;2022-10-22T07:56:33;0.50;;;0.50;;
15106;SDS011;7654;45.308;-75.096;2022-10-22T07:59:10;0.50;;;0.50;;
15106;SDS011;7654;45.308;-75.096;2022-10-22T08:01:43;0.50;;;0.50;;
15106;SDS011;7654;45.308;-75.096;2022-10-22T08:07:23;0.43;;;0.43;;
15106;SDS011;7654;45.308;-75.096;2022-10-22T08:10:01;0.50;;;0.50;;
15106;SDS011;7654;45.308;-75.096;2022-10-22T08:12:41;0.50;;;0.50;;
15106;SDS011;7654;45.308;-75.096;2022-10-22T08:15:14;0.50;;;0.50;;
15106;SDS011;7654;45.308;-75.096;2022-10-22T08:18:11;0.50;;;0.50;;
15106;SDS011;7654;45.308;-75.096;2022-10-22T08:20:41;0.50;;;0.50;;
15106;SDS011;7654;45.308;-75.096;2022-10-22T08:23:37;0.50;;;0.50;;
15106;SDS011;7654;45.308;-75.096;2022-10-22T08:26:15;0.50;;;0.50;;
15106;SDS011;7654;45.308;-75.096;2022-10-22T08:28:53;0.50;;;0.50;;
15106;SDS011;7654;45.308;-75.096;2022-10-22T08:31:39;0.50;;;0.50;;
15106;SDS011;7654;45.308;-75.096;2022-10-22T08:34:09;0.50;;;0.50;;
15106;SDS011;7654;45.308;-75.096;2022-10-22T08:36:40;0.50;;;0.50;;
15106;SDS011;7654;45.308;-75.096;2022-10-22T08:39:27;0.40;;;0.40;;
15106;SDS011;7654;45.308;-75.096;2022-10-22T08:42:02;0.50;;;0.50;;
15106;SDS011;7654;45.308;-75.096;2022-10-22T08:44:52;0.50;;;0.50;;
15106;SDS011;7654;45.308;-75.096;2022-10-22T08:47:36;0.50;;;0.50;;
15106;SDS011;7654;45.308;-75.096;2022-10-22T08:50:32;0.50;;;0.50;;
15106;SDS011;7654;45.308;-75.096;2022-10-22T08:53:44;0.50;;;0.50;;
15106;SDS011;7654;45.308;-75.096;2022-10-22T08:59:53;0.40;;;0.40;;
15106;SDS011;7654;45.308;-75.096;2022-10-22T09:03:04;0.30;;;0.30;;
15106;SDS011;7654;45.308;-75.096;2022-10-22T09:06:04;0.40;;;0.40;;
15106;SDS011;7654;45.308;-75.096;2022-10-22T09:11:39;0.40;;;0.40;;
15106;SDS011;7654;45.308;-75.096;2022-10-22T09:14:12;0.40;;;0.40;;
15106;SDS011;7654;45.308;-75.096;2022-10-22T09:16:54;0.40;;;0.40;;
15106;SDS011;7654;45.308;-75.096;2022-10-22T09:19:43;0.50;;;0.50;;
15106;SDS011;7654;45.308;-75.096;2022-10-22T09:22:26;0.40;;;0.40;;
15106;SDS011;7654;45.308;-75.096;2022-10-22T09:25:08;0.40;;;0.40;;
15106;SDS011;7654;45.308;-75.096;2022-10-22T09:27:46;0.40;;;0.40;;
15106;SDS011;7654;45.308;-75.096;2022-10-22T09:30:20;0.50;;;0.50;;
15106;SDS011;7654;45.308;-75.096;2022-10-22T09:32:54;0.40;;;0.40;;
15106;SDS011;7654;45.308;-75.096;2022-10-22T09:35:29;0.40;;;0.40;;
15106;SDS011;7654;45.308;-75.096;2022-10-22T09:38:05;0.40;;;0.40;;
15106;SDS011;7654;45.308;-75.096;2022-10-22T09:40:41;0.50;;;0.50;;
15106;SDS011;7654;45.308;-75.096;2022-10-22T09:43:13;0.40;;;0.40;;
15106;SDS011;7654;45.308;-75.096;2022-10-22T09:45:47;0.40;;;0.40;;
15106;SDS011;7654;45.308;-75.096;2022-10-22T09:48:28;0.37;;;0.37;;
15106;SDS011;7654;45.308;-75.096;2022-10-22T09:51:03;0.40;;;0.40;;
15106;SDS011;7654;45.308;-75.096;2022-10-22T09:53:41;0.40;;;0.40;;
15106;SDS011;7654;45.308;-75.096;2022-10-22T09:56:15;0.40;;;0.40;;
15106;SDS011;7654;45.308;-75.096;2022-10-22T09:58:49;0.40;;;0.40;;
15106;SDS011;7654;45.308;-75.096;2022-10-22T10:01:23;0.40;;;0.40;;
15106;SDS011;7654;45.308;-75.096;2022-10-22T10:04:03;0.37;;;0.37;;
15106;SDS011;7654;45.308;-75.096;2022-10-22T10:06:36;0.40;;;0.40;;
15106;SDS011;7654;45.308;-75.096;2022-10-22T10:09:11;0.40;;;0.40;;
15106;SDS011;7654;45.308;-75.096;2022-10-22T10:11:45;0.40;;;0.40;;
15106;SDS011;7654;45.308;-75.096;2022-10-22T10:14:20;0.40;;;0.40;;
15106;SDS011;7654;45.308;-75.096;2022-10-22T10:16:59;0.40;;;0.40;;
15106;SDS011;7654;45.308;-75.096;2022-10-22T10:19:45;0.40;;;0.40;;
15106;SDS011;7654;45.308;-75.096;2022-10-22T10:22:33;0.40;;;0.40;;
15106;SDS011;7654;45.308;-75.096;2022-10-22T10:25:22;0.40;;;0.40;;
15106;SDS011;7654;45.308;-75.096;2022-10-22T10:28:02;0.40;;;0.40;;
15106;SDS011;7654;45.308;-75.096;2022-10-22T10:30:45;0.40;;;0.40;;
15106;SDS011;7654;45.308;-75.096;2022-10-22T10:33:25;0.40;;;0.40;;
15106;SDS011;7654;45.308;-75.096;2022-10-22T10:36:05;0.40;;;0.40;;
15106;SDS011;7654;45.308;-75.096;2022-10-22T10:38:41;0.40;;;0.40;;
15106;SDS011;7654;45.308;-75.096;2022-10-22T10:41:22;0.40;;;0.40;;
15106;SDS011;7654;45.308;-75.096;2022-10-22T10:44:10;0.40;;;0.40;;
15106;SDS011;7654;45.308;-75.096;2022-10-22T10:46:50;0.40;;;0.40;;
15106;SDS011;7654;45.308;-75.096;2022-10-22T10:49:28;0.30;;;0.30;;
15106;SDS011;7654;45.308;-75.096;2022-10-22T10:52:05;0.40;;;0.40;;
15106;SDS011;7654;45.308;-75.096;2022-10-22T10:54:49;0.40;;;0.40;;
15106;SDS011;7654;45.308;-75.096;2022-10-22T10:57:31;0.40;;;0.40;;
15106;SDS011;7654;45.308;-75.096;2022-10-22T11:00:08;0.40;;;0.40;;
15106;SDS011;7654;45.308;-75.096;2022-10-22T11:02:58;0.50;;;0.50;;
15106;SDS011;7654;45.308;-75.096;2022-10-22T11:05:47;0.40;;;0.40;;
15106;SDS011;7654;45.308;-75.096;2022-10-22T11:08:23;0.40;;;0.40;;
15106;SDS011;7654;45.308;-75.096;2022-10-22T11:10:58;0.50;;;0.50;;
15106;SDS011;7654;45.308;-75.096;2022-10-22T11:13:33;0.40;;;0.40;;
15106;SDS011;7654;45.308;-75.096;2022-10-22T11:16:22;0.50;;;0.50;;
15106;SDS011;7654;45.308;-75.096;2022-10-22T11:19:04;0.40;;;0.40;;
15106;SDS011;7654;45.308;-75.096;2022-10-22T11:29:14;0.40;;;0.40;;
15106;SDS011;7654;45.308;-75.096;2022-10-22T11:32:39;0.40;;;0.40;;
15106;SDS011;7654;45.308;-75.096;2022-10-22T11:36:49;0.40;;;0.40;;
15106;SDS011;7654;45.308;-75.096;2022-10-22T11:42:50;0.40;;;0.40;;
15106;SDS011;7654;45.308;-75.096;2022-10-22T11:46:07;0.40;;;0.40;;
15106;SDS011;7654;45.308;-75.096;2022-10-22T11:49:18;0.40;;;0.40;;
15106;SDS011;7654;45.308;-75.096;2022-10-22T11:52:04;0.40;;;0.40;;
15106;SDS011;7654;45.308;-75.096;2022-10-22T11:54:58;0.40;;;0.40;;
15106;SDS011;7654;45.308;-75.096;2022-10-22T11:57:56;0.40;;;0.40;;
15106;SDS011;7654;45.308;-75.096;2022-10-22T12:00:32;0.40;;;0.40;;
15106;SDS011;7654;45.308;-75.096;2022-10-22T12:03:16;0.40;;;0.40;;
15106;SDS011;7654;45.308;-75.096;2022-10-22T12:06:25;0.40;;;0.40;;
15106;SDS011;7654;45.308;-75.096;2022-10-22T12:09:45;0.40;;;0.40;;
15106;SDS011;7654;45.308;-75.096;2022-10-22T12:12:54;0.40;;;0.40;;
15106;SDS011;7654;45.308;-75.096;2022-10-22T12:16:36;0.40;;;0.40;;
15106;SDS011;7654;45.308;-75.096;2022-10-22T12:19:35;0.40;;;0.40;;
15106;SDS011;7654;45.308;-75.096;2022-10-22T12:22:12;0.30;;;0.30;;
15106;SDS011;7654;45.308;-75.096;2022-10-22T12:24:46;0.40;;;0.40;;
15106;SDS011;7654;45.308;-75.096;2022-10-22T12:27:18;0.40;;;0.40;;
15106;SDS011;7654;45.308;-75.096;2022-10-22T12:29:53;0.30;;;0.30;;
15106;SDS011;7654;45.308;-75.096;2022-10-22T12:32:31;0.40;;;0.40;;
15106;SDS011;7654;45.308;-75.096;2022-10-22T12:35:04;0.40;;;0.40;;
15106;SDS011;7654;45.308;-75.096;2022-10-22T12:37:36;0.40;;;0.40;;
15106;SDS011;7654;45.308;-75.096;2022-10-22T12:40:17;0.40;;;0.40;;
15106;SDS011;7654;45.308;-75.096;2022-10-22T12:42:55;0.40;;;0.40;;
15106;SDS011;7654;45.308;-75.096;2022-10-22T12:45:29;0.30;;;0.30;;
15106;SDS011;7654;45.308;-75.096;2022-10-22T12:48:04;0.30;;;0.30;;
15106;SDS011;7654;45.308;-75.096;2022-10-22T12:50:40;0.40;;;0.40;;
15106;SDS011;7654;45.308;-75.096;2022-10-22T12:53:12;0.40;;;0.40;;
15106;SDS011;7654;45.308;-75.096;2022-10-22T12:55:44;0.30;;;0.30;;
15106;SDS011;7654;45.308;-75.096;2022-10-22T12:58:24;0.30;;;0.30;;
15106;SDS011;7654;45.308;-75.096;2022-10-22T13:01:05;0.40;;;0.40;;
15106;SDS011;7654;45.308;-75.096;2022-10-22T13:03:41;0.37;;;0.37;;
15106;SDS011;7654;45.308;-75.096;2022-10-22T13:06:24;0.30;;;0.30;;
15106;SDS011;7654;45.308;-75.096;2022-10-22T13:09:01;0.30;;;0.30;;
15106;SDS011;7654;45.308;-75.096;2022-10-22T13:11:47;0.20;;;0.20;;
15106;SDS011;7654;45.308;-75.096;2022-10-22T13:14:25;0.30;;;0.30;;
15106;SDS011;7654;45.308;-75.096;2022-10-22T13:17:10;0.30;;;0.30;;
15106;SDS011;7654;45.308;-75.096;2022-10-22T13:19:45;0.30;;;0.30;;
15106;SDS011;7654;45.308;-75.096;2022-10-22T13:22:29;0.30;;;0.30;;
15106;SDS011;7654;45.308;-75.096;2022-10-22T13:25:18;0.30;;;0.30;;
15106;SDS011;7654;45.308;-75.096;2022-10-22T13:27:55;0.30;;;0.30;;
15106;SDS011;7654;45.308;-75.096;2022-10-22T13:30:31;0.30;;;0.30;;
15106;SDS011;7654;45.308;-75.096;2022-10-22T13:33:23;0.30;;;0.30;;
15106;SDS011;7654;45.308;-75.096;2022-10-22T13:35:59;0.30;;;0.30;;
15106;SDS011;7654;45.308;-75.096;2022-10-22T13:38:29;0.30;;;0.30;;
15106;SDS011;7654;45.308;-75.096;2022-10-22T13:41:00;0.30;;;0.30;;
15106;SDS011;7654;45.308;-75.096;2022-10-22T13:43:32;0.30;;;0.30;;
15106;SDS011;7654;45.308;-75.096;2022-10-22T13:46:04;0.30;;;0.30;;
15106;SDS011;7654;45.308;-75.096;2022-10-22T13:48:41;0.30;;;0.30;;
15106;SDS011;7654;45.308;-75.096;2022-10-22T13:51:24;0.30;;;0.30;;
15106;SDS011;7654;45.308;-75.096;2022-10-22T13:54:01;0.30;;;0.30;;
15106;SDS011;7654;45.308;-75.096;2022-10-22T13:56:32;0.30;;;0.30;;
15106;SDS011;7654;45.308;-75.096;2022-10-22T13:59:11;0.30;;;0.30;;
15106;SDS011;7654;45.308;-75.096;2022-10-22T14:01:46;0.30;;;0.30;;
15106;SDS011;7654;45.308;-75.096;2022-10-22T14:04:17;0.30;;;0.30;;
15106;SDS011;7654;45.308;-75.096;2022-10-22T14:06:49;0.30;;;0.30;;
15106;SDS011;7654;45.308;-75.096;2022-10-22T14:09:21;0.30;;;0.30;;
15106;SDS011;7654;45.308;-75.096;2022-10-22T14:11:57;0.30;;;0.30;;
15106;SDS011;7654;45.308;-75.096;2022-10-22T14:15:04;0.30;;;0.30;;
15106;SDS011;7654;45.308;-75.096;2022-10-22T14:17:40;0.30;;;0.30;;
15106;SDS011;7654;45.308;-75.096;2022-10-22T14:20:16;0.30;;;0.30;;
15106;SDS011;7654;45.308;-75.096;2022-10-22T14:22:59;0.30;;;0.30;;
15106;SDS011;7654;45.308;-75.096;2022-10-22T14:25:40;0.20;;;0.20;;
15106;SDS011;7654;45.308;-75.096;2022-10-22T14:28:10;0.30;;;0.30;;
15106;SDS011;7654;45.308;-75.096;2022-10-22T14:30:41;0.23;;;0.23;;
15106;SDS011;7654;45.308;-75.096;2022-10-22T14:33:12;0.30;;;0.30;;
15106;SDS011;7654;45.308;-75.096;2022-10-22T14:35:46;0.30;;;0.30;;
15106;SDS011;7654;45.308;-75.096;2022-10-22T14:38:19;0.30;;;0.30;;
15106;SDS011;7654;45.308;-75.096;2022-10-22T14:40:49;0.30;;;0.30;;
15106;SDS011;7654;45.308;-75.096;2022-10-22T14:43:23;0.30;;;0.30;;
15106;SDS011;7654;45.308;-75.096;2022-10-22T14:45:55;0.30;;;0.30;;
15106;SDS011;7654;45.308;-75.096;2022-10-22T14:48:26;0.30;;;0.30;;
15106;SDS011;7654;45.308;-75.096;2022-10-22T14:51:00;0.40;;;0.40;;
15106;SDS011;7654;45.308;-75.096;2022-10-22T14:53:34;0.30;;;0.30;;
15106;SDS011;7654;45.308;-75.096;2022-10-22T14:56:13;0.30;;;0.30;;
15106;SDS011;7654;45.308;-75.096;2022-10-22T14:58:47;0.30;;;0.30;;
15106;SDS011;7654;45.308;-75.096;2022-10-22T15:01:20;0.30;;;0.30;;
15106;SDS011;7654;45.308;-75.096;2022-10-22T15:03:56;0.27;;;0.27;;
15106;SDS011;7654;45.308;-75.096;2022-10-22T15:06:26;0.30;;;0.30;;
15106;SDS011;7654;45.308;-75.096;2022-10-22T15:08:58;0.30;;;0.30;;
15106;SDS011;7654;45.308;-75.096;2022-10-22T15:11:28;0.33;;;0.33;;
15106;SDS011;7654;45.308;-75.096;2022-10-22T15:13:59;0.30;;;0.30;;
15106;SDS011;7654;45.308;-75.096;2022-10-22T15:16:32;0.30;;;0.30;;
15106;SDS011;7654;45.308;-75.096;2022-10-22T15:19:02;0.30;;;0.30;;
15106;SDS011;7654;45.308;-75.096;2022-10-22T15:21:57;0.30;;;0.30;;
15106;SDS011;7654;45.308;-75.096;2022-10-22T15:24:30;0.30;;;0.30;;
15106;SDS011;7654;45.308;-75.096;2022-10-22T15:27:00;0.30;;;0.30;;
15106;SDS011;7654;45.308;-75.096;2022-10-22T15:29:31;0.30;;;0.30;;
15106;SDS011;7654;45.308;-75.096;2022-10-22T15:32:01;0.30;;;0.30;;
15106;SDS011;7654;45.308;-75.096;2022-10-22T15:34:32;0.30;;;0.30;;
15106;SDS011;7654;45.308;-75.096;2022-10-22T15:37:04;0.30;;;0.30;;
15106;SDS011;7654;45.308;-75.096;2022-10-22T15:39:39;0.30;;;0.30;;
15106;SDS011;7654;45.308;-75.096;2022-10-22T15:42:10;0.30;;;0.30;;
15106;SDS011;7654;45.308;-75.096;2022-10-22T15:44:41;0.30;;;0.30;;
15106;SDS011;7654;45.308;-75.096;2022-10-22T15:47:11;0.30;;;0.30;;
15106;SDS011;7654;45.308;-75.096;2022-10-22T15:49:41;0.30;;;0.30;;
15106;SDS011;7654;45.308;-75.096;2022-10-22T15:52:12;0.30;;;0.30;;
15106;SDS011;7654;45.308;-75.096;2022-10-22T15:54:44;0.30;;;0.30;;
15106;SDS011;7654;45.308;-75.096;2022-10-22T15:57:15;0.30;;;0.30;;
15106;SDS011;7654;45.308;-75.096;2022-10-22T15:59:46;0.30;;;0.30;;
15106;SDS011;7654;45.308;-75.096;2022-10-22T16:02:18;0.30;;;0.30;;
15106;SDS011;7654;45.308;-75.096;2022-10-22T16:04:48;0.30;;;0.30;;
15106;SDS011;7654;45.308;-75.096;2022-10-22T16:07:19;0.30;;;0.30;;
15106;SDS011;7654;45.308;-75.096;2022-10-22T16:09:52;0.27;;;0.27;;
15106;SDS011;7654;45.308;-75.096;2022-10-22T16:12:28;0.30;;;0.30;;
15106;SDS011;7654;45.308;-75.096;2022-10-22T16:14:59;0.30;;;0.30;;
15106;SDS011;7654;45.308;-75.096;2022-10-22T16:17:29;0.20;;;0.20;;
15106;SDS011;7654;45.308;-75.096;2022-10-22T16:20:00;0.20;;;0.20;;
15106;SDS011;7654;45.308;-75.096;2022-10-22T16:22:30;0.20;;;0.20;;
15106;SDS011;7654;45.308;-75.096;2022-10-22T16:25:03;0.30;;;0.30;;
15106;SDS011;7654;45.308;-75.096;2022-10-22T16:27:33;0.30;;;0.30;;
15106;SDS011;7654;45.308;-75.096;2022-10-22T16:30:05;0.20;;;0.20;;
15106;SDS011;7654;45.308;-75.096;2022-10-22T16:32:36;0.20;;;0.20;;
15106;SDS011;7654;45.308;-75.096;2022-10-22T16:35:07;0.20;;;0.20;;
15106;SDS011;7654;45.308;-75.096;2022-10-22T16:37:38;0.20;;;0.20;;
15106;SDS011;7654;45.308;-75.096;2022-10-22T16:40:11;0.20;;;0.20;;
15106;SDS011;7654;45.308;-75.096;2022-10-22T16:42:42;0.30;;;0.30;;
15106;SDS011;7654;45.308;-75.096;2022-10-22T16:45:13;0.20;;;0.20;;
15106;SDS011;7654;45.308;-75.096;2022-10-22T16:47:44;0.20;;;0.20;;
15106;SDS011;7654;45.308;-75.096;2022-10-22T16:50:15;0.20;;;0.20;;
15106;SDS011;7654;45.308;-75.096;2022-10-22T16:52:46;0.30;;;0.30;;
15106;SDS011;7654;45.308;-75.096;2022-10-22T16:55:18;0.20;;;0.20;;
15106;SDS011;7654;45.308;-75.096;2022-10-22T16:57:49;0.30;;;0.30;;
15106;SDS011;7654;45.308;-75.096;2022-10-22T17:00:20;0.20;;;0.20;;
15106;SDS011;7654;45.308;-75.096;2022-10-22T17:02:51;0.30;;;0.30;;
15106;SDS011;7654;45.308;-75.096;2022-10-22T17:05:21;0.20;;;0.20;;
15106;SDS011;7654;45.308;-75.096;2022-10-22T17:07:52;0.20;;;0.20;;
15106;SDS011;7654;45.308;-75.096;2022-10-22T17:10:24;0.20;;;0.20;;
15106;SDS011;7654;45.308;-75.096;2022-10-22T17:12:54;0.20;;;0.20;;
15106;SDS011;7654;45.308;-75.096;2022-10-22T17:15:25;0.20;;;0.20;;
15106;SDS011;7654;45.308;-75.096;2022-10-22T17:17:55;0.30;;;0.30;;
15106;SDS011;7654;45.308;-75.096;2022-10-22T17:20:28;0.30;;;0.30;;
15106;SDS011;7654;45.308;-75.096;2022-10-22T17:22:59;0.20;;;0.20;;
15106;SDS011;7654;45.308;-75.096;2022-10-22T17:25:34;0.20;;;0.20;;
15106;SDS011;7654;45.308;-75.096;2022-10-22T17:28:05;0.20;;;0.20;;
15106;SDS011;7654;45.308;-75.096;2022-10-22T17:30:35;0.20;;;0.20;;
15106;SDS011;7654;45.308;-75.096;2022-10-22T17:33:07;0.20;;;0.20;;
15106;SDS011;7654;45.308;-75.096;2022-10-22T17:35:39;0.20;;;0.20;;
15106;SDS011;7654;45.308;-75.096;2022-10-22T17:38:09;0.20;;;0.20;;